Widen, West Virginia
Current Conditions -  °F | °C
As of 7:54 AM on Sunday 23 Nov 2014 (Local Time) from KCRW Reporting Station
Broken Clouds Broken Clouds  
Wind Chill: 40°   Ceiling: 5500
Heat Index: 40°   Visibility: 10mi
Dew Point: 31°   Wind: 0mph
Humidity: 70%   Direction: NA
Pressure: 30.09"   Gusts: NA
Location:  38.47°N, 80.86°W
Report Text: KCRW 231254Z 00000KT 10SM BKN055 BKN110 04/M01 A3009 RMK AO2 SLP191 T00441006
Loading
Personal Weather Stations






























Interactive Weather Map New forecast layout! Learn more

10-Day Weather Forecast

Advertisements
Track Severe Weather on mobile